Time;durP1;ratioP1;P1;durP2;ratioP2;P2;SDS_P1;SDS_P2;PMS_P1;PMS_P2;Temp;Humidity;BMP_temperature;BMP_pressure;BME280_temperature;BME280_humidity;BME280_pressure;Samples;Min_cycle;Max_cycle;Signal;HPM_P1;HPM_P2
2021/07/07 00:00:32;;;;;;;8.15;2.08;;;16.30;99.90;;;;;;4999771;28;20029;-74
2021/07/07 00:02:59;;;;;;;5.82;2.30;;;16.30;99.90;;;;;;4996686;28;20115;-74
2021/07/07 00:05:24;;;;;;;9.02;2.80;;;16.30;99.90;;;;;;4997040;28;20033;-74
2021/07/07 00:07:50;;;;;;;6.13;2.10;;;16.30;99.90;;;;;;4996411;28;20180;-74
2021/07/07 00:10:19;;;;;;;4.80;2.30;;;16.30;99.90;;;;;;4996243;28;20157;-74
2021/07/07 00:12:46;;;;;;;6.63;2.20;;;16.30;99.90;;;;;;4961596;28;20030;-73
2021/07/07 00:15:14;;;;;;;4.43;2.17;;;16.30;99.90;;;;;;4996849;28;20509;-74
2021/07/07 00:17:40;;;;;;;5.63;2.20;;;16.30;99.90;;;;;;4997036;28;20045;-74
2021/07/07 00:20:09;;;;;;;7.82;2.20;;;16.20;99.90;;;;;;4978551;28;20109;-74
2021/07/07 00:22:35;;;;;;;5.15;2.50;;;16.20;99.90;;;;;;4980216;28;20427;-74
2021/07/07 00:25:03;;;;;;;6.70;2.45;;;16.20;99.90;;;;;;4985237;28;20113;-74
2021/07/07 00:27:31;;;;;;;10.40;2.70;;;16.10;99.90;;;;;;4980649;28;20599;-74
2021/07/07 00:29:57;;;;;;;5.80;2.20;;;16.20;99.90;;;;;;4977735;28;20052;-74
2021/07/07 00:32:23;;;;;;;9.18;2.50;;;16.10;99.90;;;;;;4964888;28;20085;-73
2021/07/07 00:34:48;;;;;;;5.75;2.65;;;16.10;99.90;;;;;;4996534;28;20116;-74
2021/07/07 00:37:14;;;;;;;6.72;2.30;;;16.00;99.90;;;;;;4997163;28;20034;-74
2021/07/07 00:39:42;;;;;;;6.57;2.30;;;16.00;99.90;;;;;;4996337;28;20569;-74
2021/07/07 00:42:11;;;;;;;10.75;2.85;;;16.00;99.90;;;;;;4997424;28;20144;-74
2021/07/07 00:44:40;;;;;;;7.55;2.58;;;16.00;99.90;;;;;;4965242;28;20053;-74
2021/07/07 00:47:06;;;;;;;6.97;2.75;;;16.00;99.90;;;;;;4997290;28;20100;-74
2021/07/07 00:49:34;;;;;;;6.47;2.50;;;16.00;99.90;;;;;;4996785;28;20026;-74
2021/07/07 00:52:02;;;;;;;7.32;2.60;;;15.90;99.90;;;;;;4976033;28;20041;-74
2021/07/07 00:54:30;;;;;;;7.10;2.72;;;16.00;99.90;;;;;;4964609;28;20041;-74
2021/07/07 00:56:56;;;;;;;7.25;2.10;;;16.00;99.90;;;;;;4992757;28;20056;-74
2021/07/07 00:59:23;;;;;;;7.57;2.38;;;15.90;99.90;;;;;;4963935;28;20053;-73
2021/07/07 01:01:49;;;;;;;5.85;2.40;;;15.90;99.90;;;;;;4960630;28;20041;-74
2021/07/07 01:04:16;;;;;;;6.20;2.40;;;15.90;99.90;;;;;;4994225;28;20531;-74
2021/07/07 01:06:42;;;;;;;6.47;2.40;;;15.90;99.90;;;;;;4996153;28;20042;-74
2021/07/07 01:09:08;;;;;;;6.03;2.28;;;15.80;99.90;;;;;;4976750;28;20034;-74
2021/07/07 01:11:39;;;;;;;7.55;2.20;;;15.90;99.90;;;;;;4976090;28;20045;-74
2021/07/07 01:14:07;;;;;;;7.03;2.20;;;15.90;99.90;;;;;;4952614;28;20033;-74
2021/07/07 01:16:35;;;;;;;9.10;2.40;;;15.90;99.90;;;;;;4985058;28;20783;-74
2021/07/07 01:19:03;;;;;;;7.10;2.33;;;15.90;99.90;;;;;;4960345;28;20034;-74
2021/07/07 01:21:28;;;;;;;9.32;2.60;;;15.90;99.90;;;;;;4996282;28;20034;-74
2021/07/07 01:23:54;;;;;;;6.15;2.28;;;15.80;99.90;;;;;;4996338;28;20026;-74
2021/07/07 01:26:19;;;;;;;5.43;2.30;;;15.90;99.90;;;;;;4995298;28;20448;-74
2021/07/07 01:28:47;;;;;;;8.90;2.22;;;15.90;99.90;;;;;;4984057;28;20121;-74
2021/07/07 01:31:13;;;;;;;11.55;2.60;;;15.80;99.90;;;;;;4996531;28;20116;-74
2021/07/07 01:33:41;;;;;;;9.70;2.47;;;15.80;99.90;;;;;;4995640;28;20649;-74
2021/07/07 01:36:07;;;;;;;8.95;2.47;;;15.80;99.90;;;;;;4995931;28;20073;-74
2021/07/07 01:38:32;;;;;;;7.95;2.38;;;15.80;99.90;;;;;;4995589;28;20141;-74
2021/07/07 01:40:58;;;;;;;6.53;2.33;;;15.80;99.90;;;;;;4996117;28;20072;-74
2021/07/07 01:43:25;;;;;;;6.05;2.50;;;15.80;99.90;;;;;;4959997;28;20057;-74
2021/07/07 01:45:50;;;;;;;7.72;2.20;;;15.70;99.90;;;;;;4979925;28;20069;-74
2021/07/07 01:48:18;;;;;;;4.38;2.00;;;15.60;99.90;;;;;;4995526;28;20026;-74
2021/07/07 01:50:44;;;;;;;7.95;2.33;;;15.70;99.90;;;;;;4996344;28;21509;-74
2021/07/07 01:53:14;;;;;;;6.43;2.33;;;15.70;99.90;;;;;;4996667;28;20457;-74
2021/07/07 01:55:40;;;;;;;3.72;1.92;;;15.70;99.90;;;;;;4978019;28;20030;-74
2021/07/07 01:58:06;;;;;;;6.15;2.40;;;15.70;99.90;;;;;;4996204;28;20428;-73
2021/07/07 02:00:33;;;;;;;4.80;2.30;;;15.70;99.90;;;;;;4994732;28;20137;-74
2021/07/07 02:02:59;;;;;;;6.47;2.22;;;15.70;99.90;;;;;;4995095;28;20037;-74
2021/07/07 02:05:29;;;;;;;6.13;2.38;;;15.80;99.90;;;;;;4976423;28;20026;-74
2021/07/07 02:07:58;;;;;;;14.00;2.75;;;15.80;99.90;;;;;;4994880;28;20064;-73
2021/07/07 02:10:23;;;;;;;6.88;2.30;;;15.80;99.90;;;;;;4981090;28;20030;-74
2021/07/07 02:12:52;;;;;;;4.78;2.10;;;15.80;99.90;;;;;;4995559;28;20048;-73
2021/07/07 02:15:22;;;;;;;5.75;2.30;;;15.80;99.90;;;;;;4976261;28;20088;-73
2021/07/07 02:17:51;;;;;;;7.47;2.30;;;15.80;99.90;;;;;;4998867;28;22013;-73
2021/07/07 02:20:17;;;;;;;8.15;2.30;;;15.70;99.90;;;;;;4980328;28;20137;-74
2021/07/07 02:22:43;;;;;;;7.53;2.05;;;15.70;99.90;;;;;;4980919;28;20030;-73
2021/07/07 02:25:11;;;;;;;6.25;2.38;;;15.70;99.90;;;;;;4980033;28;20589;-74
2021/07/07 02:27:37;;;;;;;4.90;2.38;;;15.70;99.90;;;;;;4999892;28;20088;-74
2021/07/07 02:30:04;;;;;;;5.25;2.35;;;15.70;99.90;;;;;;4978906;28;20034;-74
2021/07/07 02:32:29;;;;;;;7.03;2.70;;;15.70;99.90;;;;;;4998860;28;20460;-73
2021/07/07 02:34:57;;;;;;;8.20;2.40;;;15.70;99.90;;;;;;4999485;28;20044;-74
2021/07/07 02:37:23;;;;;;;6.65;2.30;;;15.70;99.90;;;;;;4998427;28;20061;-73
2021/07/07 02:39:49;;;;;;;7.65;2.50;;;15.70;99.90;;;;;;4999513;28;20120;-73
2021/07/07 02:42:17;;;;;;;15.73;2.65;;;15.60;99.90;;;;;;4983676;28;20030;-74
2021/07/07 02:44:45;;;;;;;5.07;2.00;;;15.60;99.90;;;;;;4998822;28;20068;-74
2021/07/07 02:47:11;;;;;;;7.95;2.20;;;15.60;99.90;;;;;;4997811;28;20455;-74
2021/07/07 02:49:43;;;;;;;8.48;2.35;;;15.70;99.90;;;;;;4998632;28;20111;-74
2021/07/07 02:52:13;;;;;;;5.88;2.20;;;15.60;99.90;;;;;;4997197;28;20030;-74
2021/07/07 02:54:41;;;;;;;6.05;2.60;;;15.60;99.90;;;;;;4999105;28;20033;-74
2021/07/07 02:57:07;;;;;;;7.60;2.50;;;15.60;99.90;;;;;;4998582;28;20128;-74
2021/07/07 02:59:32;;;;;;;7.85;2.53;;;15.60;99.90;;;;;;4997235;28;20459;-74
2021/07/07 03:01:58;;;;;;;7.32;2.22;;;15.60;99.90;;;;;;4970690;28;20042;-74
2021/07/07 03:04:23;;;;;;;5.60;2.40;;;15.50;99.90;;;;;;4963203;28;20033;-74
2021/07/07 03:06:49;;;;;;;7.18;2.45;;;15.60;99.90;;;;;;4998658;28;20571;-74
2021/07/07 03:09:20;;;;;;;7.28;2.58;;;15.60;99.90;;;;;;4977398;28;20048;-73
2021/07/07 03:11:45;;;;;;;5.93;2.63;;;15.50;99.90;;;;;;4998948;28;20061;-74
2021/07/07 03:14:11;;;;;;;5.55;2.33;;;15.50;99.90;;;;;;4995441;28;20120;-74
2021/07/07 03:16:39;;;;;;;7.47;2.50;;;15.50;99.90;;;;;;4978917;28;20139;-74
2021/07/07 03:19:07;;;;;;;8.30;2.38;;;15.50;99.90;;;;;;4994452;28;20053;-74
2021/07/07 03:21:35;;;;;;;9.63;2.70;;;15.50;99.90;;;;;;4977659;28;20034;-74
2021/07/07 03:24:00;;;;;;;8.95;2.80;;;15.50;99.90;;;;;;4997776;28;20351;-74
2021/07/07 03:26:31;;;;;;;8.70;2.50;;;15.50;99.90;;;;;;4986213;28;20030;-74
2021/07/07 03:28:56;;;;;;;9.20;2.75;;;15.50;99.90;;;;;;4997676;28;21514;-73
2021/07/07 03:31:24;;;;;;;6.03;2.70;;;15.50;99.90;;;;;;4998169;28;20469;-74
2021/07/07 03:33:52;;;;;;;9.20;3.08;;;15.50;99.90;;;;;;4997136;28;20121;-73
2021/07/07 03:36:19;;;;;;;8.65;2.72;;;15.50;99.90;;;;;;4997857;28;20099;-74
2021/07/07 03:38:45;;;;;;;5.28;2.25;;;15.50;99.90;;;;;;4966710;28;20034;-73
2021/07/07 03:41:13;;;;;;;6.82;2.50;;;15.50;99.90;;;;;;4997554;28;20030;-74
2021/07/07 03:43:39;;;;;;;7.75;2.65;;;15.40;99.90;;;;;;4997480;28;20105;-74
2021/07/07 03:46:07;;;;;;;5.78;2.60;;;15.50;99.90;;;;;;4998107;28;20034;-73
2021/07/07 03:48:33;;;;;;;6.35;2.45;;;15.50;99.90;;;;;;4997616;28;20038;-74
2021/07/07 03:50:58;;;;;;;9.32;2.97;;;15.50;99.90;;;;;;4997438;28;20033;-74
2021/07/07 03:53:24;;;;;;;6.20;2.42;;;15.40;99.90;;;;;;4997572;28;20022;-74
2021/07/07 03:55:50;;;;;;;7.10;2.53;;;15.50;99.90;;;;;;4997569;28;20114;-74
2021/07/07 03:58:17;;;;;;;8.02;3.17;;;15.40;99.90;;;;;;4996892;28;20060;-74
2021/07/07 04:00:46;;;;;;;7.55;2.65;;;15.50;99.90;;;;;;4997707;28;20065;-74
2021/07/07 04:03:11;;;;;;;5.63;2.72;;;15.40;99.90;;;;;;4997433;28;20065;-74
2021/07/07 04:05:38;;;;;;;6.60;2.67;;;15.50;99.90;;;;;;4997799;28;20034;-74
2021/07/07 04:08:04;;;;;;;4.50;2.53;;;15.50;99.90;;;;;;4977447;28;20053;-74
2021/07/07 04:10:29;;;;;;;8.27;2.67;;;15.50;99.90;;;;;;4998065;28;20122;-74
2021/07/07 04:12:55;;;;;;;8.05;2.70;;;15.50;99.90;;;;;;4997160;28;20077;-74
2021/07/07 04:15:23;;;;;;;8.95;2.90;;;15.50;99.90;;;;;;4997703;28;20387;-74
2021/07/07 04:17:53;;;;;;;7.22;2.50;;;15.50;99.90;;;;;;4993499;28;20824;-74
2021/07/07 04:20:19;;;;;;;5.35;2.78;;;15.40;99.90;;;;;;4997784;28;20030;-74
2021/07/07 04:22:47;;;;;;;6.25;2.30;;;15.50;99.90;;;;;;4997001;28;20096;-74
2021/07/07 04:25:16;;;;;;;7.15;2.67;;;15.50;99.90;;;;;;4996610;28;20057;-74
2021/07/07 04:27:42;;;;;;;6.38;2.88;;;15.50;99.90;;;;;;4980993;28;20869;-74
2021/07/07 04:30:09;;;;;;;9.52;3.05;;;15.50;99.90;;;;;;4983789;28;20757;-74
2021/07/07 04:32:35;;;;;;;5.50;2.83;;;15.50;99.90;;;;;;4977359;28;20176;-74
2021/07/07 04:35:04;;;;;;;7.40;3.30;;;15.50;99.90;;;;;;4976292;28;20859;-74
2021/07/07 04:37:32;;;;;;;10.10;3.25;;;15.50;99.90;;;;;;4977823;28;20061;-74
2021/07/07 04:40:00;;;;;;;6.97;2.85;;;15.50;99.90;;;;;;4976702;28;20038;-74
2021/07/07 04:42:25;;;;;;;7.60;2.90;;;15.50;99.90;;;;;;4965065;28;20052;-74
2021/07/07 04:44:51;;;;;;;8.30;2.92;;;15.50;99.90;;;;;;4960117;28;20038;-74
2021/07/07 04:47:17;;;;;;;7.35;3.30;;;15.50;99.90;;;;;;4985642;28;20048;-74
2021/07/07 04:49:45;;;;;;;8.50;2.92;;;15.50;99.90;;;;;;4996042;28;20033;-74
2021/07/07 04:52:10;;;;;;;6.47;3.10;;;15.50;99.90;;;;;;4996357;28;20037;-74
2021/07/07 04:54:36;;;;;;;7.60;3.50;;;15.50;99.90;;;;;;4995410;28;20048;-74
2021/07/07 04:57:02;;;;;;;6.85;2.95;;;15.50;99.90;;;;;;4980783;28;20574;-74
2021/07/07 04:59:35;;;;;;;9.60;3.10;;;15.60;99.90;;;;;;4996658;28;20038;-74
2021/07/07 05:02:03;;;;;;;7.90;3.40;;;15.60;99.90;;;;;;4985676;28;20038;-74
2021/07/07 05:04:31;;;;;;;6.63;2.92;;;15.60;99.90;;;;;;4996223;28;20478;-75
2021/07/07 05:06:56;;;;;;;8.13;3.28;;;15.60;99.90;;;;;;4993420;28;20109;-74
2021/07/07 05:09:24;;;;;;;8.40;3.00;;;15.70;99.90;;;;;;4968895;28;20111;-74
2021/07/07 05:11:50;;;;;;;5.65;3.10;;;15.70;99.90;;;;;;4995653;28;20038;-74
2021/07/07 05:14:16;;;;;;;7.13;2.63;;;15.80;99.90;;;;;;4980459;28;20033;-74
2021/07/07 05:16:44;;;;;;;6.85;2.97;;;15.80;99.90;;;;;;4996030;28;20033;-74
2021/07/07 05:19:09;;;;;;;7.07;2.88;;;15.80;99.90;;;;;;4996542;28;20045;-74
2021/07/07 05:21:38;;;;;;;6.18;2.95;;;15.90;99.90;;;;;;4997637;28;20037;-74
2021/07/07 05:24:05;;;;;;;7.53;2.80;;;15.90;99.90;;;;;;4981232;28;20042;-74
2021/07/07 05:26:34;;;;;;;6.63;2.80;;;15.90;99.90;;;;;;4966911;28;20113;-74
2021/07/07 05:28:59;;;;;;;8.10;3.28;;;15.90;99.90;;;;;;4976611;28;20053;-74
2021/07/07 05:31:27;;;;;;;6.50;3.03;;;15.90;99.90;;;;;;4995512;28;20037;-74
2021/07/07 05:33:53;;;;;;;6.15;3.20;;;15.90;99.90;;;;;;4995183;28;20751;-74
2021/07/07 05:36:21;;;;;;;9.98;3.15;;;15.90;99.90;;;;;;4995751;28;20042;-74
2021/07/07 05:38:49;;;;;;;7.65;3.38;;;16.00;99.90;;;;;;4981230;28;20464;-74
2021/07/07 05:41:17;;;;;;;6.70;3.55;;;16.00;99.90;;;;;;4980709;28;20038;-73
2021/07/07 05:43:43;;;;;;;5.35;3.00;;;16.00;99.90;;;;;;4976375;28;20034;-74
2021/07/07 05:46:08;;;;;;;9.70;3.20;;;16.10;99.90;;;;;;4974962;28;20037;-74
2021/07/07 05:48:34;;;;;;;5.50;3.42;;;16.10;99.90;;;;;;4996583;28;20045;-74
2021/07/07 05:51:01;;;;;;;6.18;3.30;;;16.10;99.90;;;;;;4996950;28;20037;-74
2021/07/07 05:53:28;;;;;;;6.47;2.95;;;16.10;99.90;;;;;;4999876;28;20839;-74
2021/07/07 05:55:53;;;;;;;7.05;3.40;;;16.10;99.90;;;;;;4999619;28;20109;-74
2021/07/07 05:58:19;;;;;;;7.43;3.30;;;16.10;99.90;;;;;;4983926;28;20084;-74
2021/07/07 06:00:47;;;;;;;7.50;3.47;;;16.20;99.90;;;;;;4999677;28;20116;-74
2021/07/07 06:03:13;;;;;;;7.13;3.40;;;16.20;99.90;;;;;;5000585;28;20042;-74
2021/07/07 06:05:43;;;;;;;10.00;3.17;;;16.20;99.90;;;;;;4999965;28;20492;-74
2021/07/07 06:08:12;;;;;;;6.95;3.47;;;16.30;99.90;;;;;;4998688;28;20053;-74
2021/07/07 06:10:41;;;;;;;7.63;3.20;;;16.30;99.90;;;;;;4980283;28;20044;-73
2021/07/07 06:13:09;;;;;;;6.05;3.50;;;16.40;99.90;;;;;;4980529;28;20030;-73
2021/07/07 06:15:37;;;;;;;6.78;3.20;;;16.30;99.90;;;;;;4979495;28;20109;-74
2021/07/07 06:18:06;;;;;;;6.53;3.40;;;16.30;99.90;;;;;;4980806;28;20034;-74
2021/07/07 06:20:34;;;;;;;6.95;3.25;;;16.40;99.90;;;;;;4999035;28;20034;-73
2021/07/07 06:23:05;;;;;;;6.78;3.33;;;16.40;99.90;;;;;;4981978;28;20030;-73
2021/07/07 06:25:32;;;;;;;6.65;3.55;;;16.40;99.90;;;;;;4980176;28;20511;-74
2021/07/07 06:28:00;;;;;;;6.93;3.40;;;16.40;99.90;;;;;;4983709;28;20184;-73
2021/07/07 06:30:26;;;;;;;7.85;3.55;;;16.40;99.90;;;;;;4998542;28;20965;-73
2021/07/07 06:32:52;;;;;;;8.82;3.30;;;16.20;99.90;;;;;;4999371;28;20419;-74
2021/07/07 06:35:20;;;;;;;6.32;3.60;;;16.30;99.90;;;;;;4979283;28;20096;-73
2021/07/07 06:37:46;;;;;;;6.78;3.83;;;16.30;99.90;;;;;;4995684;28;20042;-74
2021/07/07 06:40:12;;;;;;;6.38;3.47;;;16.30;99.90;;;;;;4998936;28;20036;-74
2021/07/07 06:42:38;;;;;;;7.68;3.50;;;16.30;99.90;;;;;;4999320;28;20713;-74
2021/07/07 06:45:05;;;;;;;7.55;3.80;;;16.30;99.90;;;;;;4966319;28;20038;-74
2021/07/07 06:47:30;;;;;;;7.85;3.70;;;16.40;99.90;;;;;;4999636;28;20099;-74
2021/07/07 06:49:56;;;;;;;9.80;3.83;;;16.40;99.90;;;;;;4985282;28;20439;-73
2021/07/07 06:52:27;;;;;;;7.45;4.05;;;16.40;99.90;;;;;;4978583;28;20062;-74
2021/07/07 06:54:53;;;;;;;7.35;4.38;;;16.50;99.90;;;;;;4983546;28;20026;-73
2021/07/07 06:57:18;;;;;;;9.63;4.28;;;16.40;99.90;;;;;;4982199;28;20060;-74
2021/07/07 06:59:44;;;;;;;8.07;4.35;;;16.50;99.90;;;;;;4997688;28;20038;-74
2021/07/07 07:02:10;;;;;;;8.15;4.45;;;16.60;99.90;;;;;;4998484;28;20455;-74
2021/07/07 07:04:36;;;;;;;9.77;4.70;;;16.60;99.90;;;;;;4995806;28;20100;-74
2021/07/07 07:07:01;;;;;;;9.40;4.35;;;16.60;99.90;;;;;;4983101;28;20355;-74
2021/07/07 07:09:27;;;;;;;8.68;4.88;;;16.60;99.90;;;;;;4999512;28;20034;-73
2021/07/07 07:11:53;;;;;;;6.95;4.22;;;16.60;99.90;;;;;;4998143;28;20206;-74
2021/07/07 07:14:19;;;;;;;10.48;4.80;;;16.70;99.90;;;;;;4977853;28;20427;-74
2021/07/07 07:16:47;;;;;;;7.00;4.40;;;16.80;99.90;;;;;;4998575;28;20025;-74
2021/07/07 07:19:15;;;;;;;6.60;4.50;;;16.70;99.90;;;;;;4998907;28;20052;-74
2021/07/07 07:21:41;;;;;;;7.43;4.13;;;16.80;99.90;;;;;;4983002;28;20041;-74
2021/07/07 07:24:07;;;;;;;8.30;4.22;;;16.90;99.90;;;;;;4982566;28;20034;-74
2021/07/07 07:26:36;;;;;;;9.13;4.47;;;16.90;99.90;;;;;;4977369;28;20451;-74
2021/07/07 07:29:04;;;;;;;7.93;4.70;;;17.00;99.90;;;;;;4990399;28;20026;-73
2021/07/07 07:31:32;;;;;;;5.82;4.03;;;17.10;99.90;;;;;;4998547;28;20479;-73
2021/07/07 07:34:01;;;;;;;7.45;4.25;;;17.20;99.90;;;;;;4979051;28;20041;-74
2021/07/07 07:36:26;;;;;;;7.63;4.10;;;17.30;99.90;;;;;;4978528;28;20392;-73
2021/07/07 07:39:04;;;;;;;8.02;4.38;;;17.40;99.90;;;;;;4978585;28;20044;-74
2021/07/07 07:41:37;;;;;;;7.60;4.50;;;17.50;99.90;;;;;;4998367;28;20053;-74
2021/07/07 07:44:04;;;;;;;6.78;4.13;;;17.60;99.90;;;;;;4998312;28;20038;-74
2021/07/07 07:46:34;;;;;;;8.70;4.60;;;17.80;99.90;;;;;;4997593;28;20029;-73
2021/07/07 07:49:00;;;;;;;8.82;4.55;;;18.10;99.90;;;;;;4994072;28;20471;-73
2021/07/07 07:51:29;;;;;;;9.05;4.03;;;18.40;99.90;;;;;;4997292;28;20633;-73
2021/07/07 07:53:55;;;;;;;7.88;4.57;;;18.60;99.90;;;;;;4997507;28;20108;-71
2021/07/07 07:56:23;;;;;;;7.60;4.57;;;18.80;99.90;;;;;;4981459;28;20099;-71
2021/07/07 07:58:50;;;;;;;7.03;4.60;;;18.90;99.90;;;;;;4978084;28;20337;-71
2021/07/07 08:01:19;;;;;;;6.53;3.55;;;18.90;99.90;;;;;;4996676;28;20072;-73
2021/07/07 08:03:44;;;;;;;6.70;3.42;;;19.20;99.90;;;;;;4997571;28;20033;-74
2021/07/07 08:06:13;;;;;;;7.60;3.45;;;19.40;99.90;;;;;;4997364;28;20517;-74
2021/07/07 08:08:38;;;;;;;5.65;3.30;;;19.50;99.90;;;;;;4979388;28;21946;-74
2021/07/07 08:11:04;;;;;;;6.88;3.10;;;19.80;99.90;;;;;;4977303;28;20062;-73
2021/07/07 08:13:30;;;;;;;7.18;3.53;;;19.70;99.90;;;;;;4996539;28;20034;-73
2021/07/07 08:15:55;;;;;;;6.97;3.20;;;19.80;99.90;;;;;;4996724;28;20061;-74
2021/07/07 08:18:21;;;;;;;6.07;3.22;;;19.90;99.90;;;;;;4997493;28;20123;-74
2021/07/07 08:20:46;;;;;;;5.95;3.33;;;20.00;99.90;;;;;;4979603;28;20088;-73
2021/07/07 08:23:14;;;;;;;9.75;3.10;;;20.30;99.90;;;;;;4980289;28;20033;-74
2021/07/07 08:25:40;;;;;;;6.05;3.38;;;20.20;99.90;;;;;;4996048;28;20476;-73
2021/07/07 08:28:06;;;;;;;6.10;3.10;;;20.00;99.90;;;;;;4984798;28;20025;-74
2021/07/07 08:30:31;;;;;;;6.05;3.10;;;20.20;99.90;;;;;;4996280;28;20045;-73
2021/07/07 08:32:57;;;;;;;5.90;2.60;;;20.20;99.90;;;;;;4998186;28;20034;-73
2021/07/07 08:35:23;;;;;;;6.22;2.90;;;20.30;99.90;;;;;;4997140;28;20022;-74
2021/07/07 08:37:48;;;;;;;6.13;2.75;;;20.30;99.90;;;;;;4995715;28;20045;-74
2021/07/07 08:40:17;;;;;;;7.53;2.90;;;20.50;99.90;;;;;;4980785;28;20523;-73
2021/07/07 08:42:45;;;;;;;7.45;2.92;;;20.40;99.90;;;;;;4997181;28;20033;-71
2021/07/07 08:45:14;;;;;;;8.02;3.22;;;20.40;99.90;;;;;;4978759;28;20034;-72
2021/07/07 08:47:42;;;;;;;5.35;2.90;;;20.30;99.90;;;;;;4993209;28;20033;-74
2021/07/07 08:50:12;;;;;;;7.70;3.03;;;20.40;99.90;;;;;;4945070;28;21912;-74
2021/07/07 08:52:38;;;;;;;7.93;2.90;;;20.50;99.90;;;;;;4997401;28;20128;-73
2021/07/07 08:55:09;;;;;;;8.70;3.25;;;20.30;99.90;;;;;;4980871;28;20026;-74
2021/07/07 08:57:42;;;;;;;8.45;3.15;;;20.30;99.90;;;;;;4980155;28;20065;-74
2021/07/07 09:00:30;;;;;;;8.07;3.08;;;20.40;99.90;;;;;;4995456;28;20029;-72
2021/07/07 09:02:59;;;;;;;7.57;3.17;;;20.40;99.20;;;;;;4996147;28;20041;-72
2021/07/07 09:05:27;;;;;;;6.57;3.10;;;20.50;99.90;;;;;;4977006;28;20037;-67
2021/07/07 09:07:55;;;;;;;6.57;2.83;;;20.40;99.90;;;;;;4964771;28;20038;-67
2021/07/07 09:10:31;;;;;;;7.90;3.15;;;20.50;99.90;;;;;;4995542;28;20116;-67
2021/07/07 09:13:10;;;;;;;8.45;3.28;;;20.50;99.90;;;;;;4980836;28;20045;-67
2021/07/07 09:15:36;;;;;;;8.15;3.40;;;20.60;99.90;;;;;;4967696;28;20062;-67
2021/07/07 09:18:04;;;;;;;7.18;3.15;;;20.60;99.90;;;;;;4979699;28;20483;-67
2021/07/07 09:20:37;;;;;;;7.25;2.90;;;20.70;99.90;;;;;;4963916;28;20034;-72
2021/07/07 09:23:22;;;;;;;7.13;2.80;;;20.70;99.90;;;;;;4977321;28;20040;-72
2021/07/07 09:25:49;;;;;;;8.23;2.70;;;20.80;99.90;;;;;;4981712;28;20494;-72
2021/07/07 09:28:18;;;;;;;7.85;2.90;;;20.90;99.90;;;;;;4995023;28;20113;-72
2021/07/07 09:30:46;;;;;;;8.00;3.15;;;20.80;99.90;;;;;;4946811;28;20056;-73
2021/07/07 09:33:14;;;;;;;8.13;3.05;;;21.00;99.90;;;;;;4958847;28;20026;-72
2021/07/07 09:35:42;;;;;;;8.20;2.85;;;21.10;99.90;;;;;;4975718;28;20680;-72
2021/07/07 09:38:11;;;;;;;8.63;2.70;;;21.20;99.90;;;;;;4975955;28;20092;-72
2021/07/07 09:40:42;;;;;;;6.97;2.40;;;21.30;99.90;;;;;;4962136;28;20740;-73
2021/07/07 09:43:11;;;;;;;8.15;2.80;;;21.30;99.90;;;;;;4977436;28;20044;-72
2021/07/07 09:45:50;;;;;;;7.80;2.67;;;21.50;99.90;;;;;;4975690;28;20030;-72
2021/07/07 09:48:16;;;;;;;8.40;2.60;;;21.60;97.60;;;;;;4959157;28;20038;-71
2021/07/07 09:50:45;;;;;;;6.85;2.30;;;21.50;98.10;;;;;;4995387;28;21099;-72
2021/07/07 09:53:14;;;;;;;7.97;2.65;;;21.50;99.90;;;;;;4976507;28;20026;-73
2021/07/07 09:55:41;;;;;;;8.95;2.50;;;21.70;99.90;;;;;;4994424;28;20053;-72
2021/07/07 09:58:09;;;;;;;8.15;2.40;;;21.40;99.90;;;;;;4967478;28;20026;-72
2021/07/07 10:00:38;;;;;;;7.15;2.53;;;21.60;99.90;;;;;;4975394;28;20030;-72
2021/07/07 10:03:04;;;;;;;6.75;2.53;;;21.70;99.90;;;;;;4982896;28;20030;-72
2021/07/07 10:05:32;;;;;;;6.88;2.22;;;21.60;97.80;;;;;;4993996;28;20056;-72
2021/07/07 10:08:00;;;;;;;6.75;2.33;;;21.60;99.00;;;;;;4961902;28;20471;-71
2021/07/07 10:10:27;;;;;;;6.88;2.42;;;21.70;99.90;;;;;;4993832;28;20029;-72
2021/07/07 10:12:55;;;;;;;7.07;2.75;;;21.80;99.90;;;;;;4976549;28;20058;-71
2021/07/07 10:15:21;;;;;;;7.22;2.42;;;21.90;99.90;;;;;;4946053;28;20036;-72
2021/07/07 10:17:49;;;;;;;6.50;2.47;;;21.80;98.70;;;;;;4992223;28;20033;-72
2021/07/07 10:20:17;;;;;;;9.68;2.90;;;22.00;99.90;;;;;;4995364;28;20129;-72
2021/07/07 10:22:43;;;;;;;7.63;2.38;;;22.00;98.50;;;;;;4980513;28;20034;-72
2021/07/07 10:25:18;;;;;;;7.65;2.58;;;21.90;97.00;;;;;;4995013;28;20045;-67
2021/07/07 10:27:44;;;;;;;7.18;2.65;;;22.20;99.90;;;;;;4977087;28;20482;-66
2021/07/07 10:30:09;;;;;;;6.20;2.85;;;22.10;99.90;;;;;;4958248;28;20112;-66
2021/07/07 10:32:35;;;;;;;6.95;2.53;;;22.10;99.60;;;;;;4994400;28;20463;-72
2021/07/07 10:35:05;;;;;;;8.68;2.60;;;21.90;93.50;;;;;;4979605;28;20065;-71
2021/07/07 10:37:33;;;;;;;5.55;2.25;;;22.00;97.40;;;;;;4982296;28;20422;-71
2021/07/07 10:40:24;;;;;;;8.18;2.40;;;22.00;94.50;;;;;;4998136;28;20360;-72
2021/07/07 10:42:50;;;;;;;6.88;2.58;;;22.20;96.20;;;;;;4977938;28;20037;-71
2021/07/07 10:45:35;;;;;;;6.25;2.47;;;22.20;96.40;;;;;;4978608;28;20033;-71
2021/07/07 10:48:23;;;;;;;8.65;2.65;;;22.30;95.10;;;;;;4997520;28;20171;-72
2021/07/07 10:50:50;;;;;;;7.05;3.05;;;22.20;93.80;;;;;;4997878;28;20117;-71
2021/07/07 10:53:29;;;;;;;7.97;2.60;;;22.30;95.50;;;;;;4978727;28;20057;-71
2021/07/07 10:55:57;;;;;;;6.45;2.30;;;22.20;85.60;;;;;;4997230;28;20172;-72
2021/07/07 10:58:27;;;;;;;9.35;2.78;;;22.10;90.90;;;;;;4997740;28;20095;-72
2021/07/07 11:00:53;;;;;;;6.50;2.47;;;22.30;98.40;;;;;;4997564;28;20113;-71
2021/07/07 11:03:31;;;;;;;8.40;2.50;;;22.50;92.10;;;;;;4965877;28;20037;-73
2021/07/07 11:05:59;;;;;;;7.90;2.90;;;22.40;88.70;;;;;;4983787;28;20225;-72
2021/07/07 11:08:27;;;;;;;8.23;2.30;;;22.20;91.00;;;;;;4980723;28;20026;-72
2021/07/07 11:10:59;;;;;;;7.45;2.58;;;22.30;85.00;;;;;;4983408;28;20031;-72
2021/07/07 11:13:25;;;;;;;5.72;2.20;;;22.50;94.60;;;;;;4999001;28;20035;-72
2021/07/07 11:15:51;;;;;;;6.30;2.20;;;22.60;95.10;;;;;;4981275;28;20475;-72
2021/07/07 11:18:18;;;;;;;5.95;2.00;;;22.60;86.30;;;;;;4999339;28;21843;-72
2021/07/07 11:20:48;;;;;;;6.78;2.30;;;22.50;77.50;;;;;;4980699;28;20572;-71
2021/07/07 11:23:16;;;;;;;7.97;2.30;;;22.50;79.40;;;;;;4984945;28;20084;-71
2021/07/07 11:25:41;;;;;;;7.03;2.35;;;22.60;89.10;;;;;;4978584;28;20026;-73
2021/07/07 11:28:11;;;;;;;7.72;2.28;;;22.70;81.60;;;;;;4997553;28;20053;-71
2021/07/07 11:30:39;;;;;;;8.07;2.30;;;22.80;84.60;;;;;;4965314;28;20064;-71
2021/07/07 11:33:06;;;;;;;7.13;2.30;;;23.10;93.20;;;;;;4997925;28;20856;-71
2021/07/07 11:35:36;;;;;;;7.55;2.40;;;23.20;95.10;;;;;;4981340;28;20712;-71
2021/07/07 11:38:04;;;;;;;6.50;2.00;;;23.10;83.50;;;;;;4998337;28;20058;-71
2021/07/07 11:40:32;;;;;;;6.75;2.28;;;23.10;83.80;;;;;;4996918;28;20038;-71
2021/07/07 11:43:07;;;;;;;6.57;2.30;;;23.20;90.70;;;;;;4995861;28;20030;-72
2021/07/07 11:45:37;;;;;;;6.22;2.20;;;23.30;92.10;;;;;;4962284;28;20120;-72
2021/07/07 11:48:40;;;;;;;5.80;2.05;;;23.30;77.70;;;;;;4997065;28;20494;-72
2021/07/07 11:51:14;;;;;;;7.32;2.25;;;23.20;73.90;;;;;;4968300;28;20026;-71
2021/07/07 11:53:43;;;;;;;7.63;2.50;;;23.10;72.50;;;;;;4966127;28;20049;-72
2021/07/07 11:56:10;;;;;;;8.30;2.45;;;23.30;87.70;;;;;;4965713;28;20526;-71
2021/07/07 11:58:46;;;;;;;7.90;2.30;;;23.40;78.60;;;;;;4980313;28;20034;-72
2021/07/07 12:01:16;;;;;;;8.52;1.92;;;23.40;75.30;;;;;;4996486;28;20065;-72
2021/07/07 12:03:42;;;;;;;9.47;2.40;;;23.30;72.60;;;;;;4996969;28;20029;-72
2021/07/07 12:06:09;;;;;;;6.35;2.30;;;23.20;75.10;;;;;;4976557;28;20030;-72
2021/07/07 12:08:41;;;;;;;7.55;2.50;;;23.20;78.60;;;;;;4980421;28;20034;-73
2021/07/07 12:11:11;;;;;;;6.35;2.10;;;23.30;76.40;;;;;;4998152;28;20040;-71
2021/07/07 12:13:43;;;;;;;7.15;2.10;;;23.40;77.50;;;;;;4977874;28;20033;-67
2021/07/07 12:16:32;;;;;;;6.45;2.20;;;23.60;83.20;;;;;;4981712;28;20480;-79
2021/07/07 12:19:04;;;;;;;6.40;2.17;;;23.60;77.50;;;;;;4980200;28;20121;-74
2021/07/07 12:21:34;;;;;;;6.65;2.22;;;23.40;79.90;;;;;;4976418;28;20061;-72
2021/07/07 12:24:01;;;;;;;7.55;2.47;;;23.60;82.00;;;;;;4981289;28;20057;-71
2021/07/07 12:26:32;;;;;;;7.15;2.00;;;23.60;76.00;;;;;;4995543;28;20033;-71
2021/07/07 12:29:00;;;;;;;6.90;2.53;;;23.70;76.00;;;;;;4996679;28;20468;-72
2021/07/07 12:31:29;;;;;;;7.43;2.08;;;23.80;75.50;;;;;;4981390;28;20026;-73
2021/07/07 12:33:57;;;;;;;6.32;2.10;;;24.00;80.20;;;;;;4964706;28;20033;-72
2021/07/07 12:36:28;;;;;;;5.95;2.30;;;23.90;74.20;;;;;;4977243;28;20030;-72
2021/07/07 12:39:01;;;;;;;7.40;2.10;;;23.80;73.40;;;;;;4976476;28;20447;-72
2021/07/07 12:41:39;;;;;;;6.60;2.63;;;23.70;72.70;;;;;;4978644;28;20048;-72
2021/07/07 12:44:12;;;;;;;7.40;2.50;;;23.40;71.50;;;;;;4996959;28;20139;-72
2021/07/07 12:46:55;;;;;;;5.65;2.10;;;23.30;74.20;;;;;;4979402;28;20030;-72
2021/07/07 12:49:35;;;;;;;8.18;2.22;;;23.30;72.80;;;;;;4977611;28;20113;-72